Time,TemperatureF,DewpointF,PressureIn,WindDirection,WindDirectionDegrees,WindSpeedMPH,WindSpeedGustMPH,Humidity,HourlyPrecipIn,Conditions,Clouds,dailyrainin,SoftwareType,DateUTC
2013-09-21 00:01:00,56.8,53.9,29.65,North,-999,0.0,0.0,90,0.00,,,0.07,pywws,2013-09-21 07:01:00,
2013-09-21 00:06:00,57.0,54.1,29.65,North,-999,0.0,0.0,90,0.00,,,0.00,pywws,2013-09-21 07:06:00,
2013-09-21 00:11:00,56.8,53.9,29.66,North,-999,0.0,0.0,90,0.00,,,0.00,pywws,2013-09-21 07:11:00,
2013-09-21 00:16:00,56.8,54.2,29.65,North,-999,0.0,0.0,91,0.00,,,0.00,pywws,2013-09-21 07:16:00,
2013-09-21 00:21:00,56.8,54.2,29.65,North,-999,0.0,0.0,91,0.00,,,0.00,pywws,2013-09-21 07:21:00,
2013-09-21 00:26:00,56.8,54.2,29.65,North,-999,0.0,0.0,91,0.00,,,0.00,pywws,2013-09-21 07:26:00,
2013-09-21 00:31:00,56.8,54.2,29.66,North,-999,0.0,0.0,91,0.00,,,0.00,pywws,2013-09-21 07:31:00,
2013-09-21 00:36:00,56.8,54.2,29.66,North,-999,0.0,0.0,91,0.00,,,0.00,pywws,2013-09-21 07:36:00,
2013-09-21 00:41:00,56.8,54.2,29.65,North,-999,0.0,0.0,91,0.00,,,0.00,pywws,2013-09-21 07:41:00,
2013-09-21 00:46:00,57.0,54.4,29.65,North,-999,0.0,0.0,91,0.00,,,0.00,pywws,2013-09-21 07:46:00,
2013-09-21 00:51:00,57.0,54.4,29.65,North,-999,0.0,0.0,91,0.00,,,0.00,pywws,2013-09-21 07:51:00,
2013-09-21 00:56:00,57.0,54.4,29.65,North,-999,0.0,0.0,91,0.00,,,0.00,pywws,2013-09-21 07:56:00,
2013-09-21 01:01:00,57.0,54.4,29.65,North,-999,0.0,0.0,91,0.00,,,0.00,pywws,2013-09-21 08:01:00,
2013-09-21 01:06:00,57.0,54.4,29.65,North,-999,0.0,0.0,91,0.00,,,0.00,pywws,2013-09-21 08:06:00,
2013-09-21 01:11:00,57.0,54.4,29.65,North,-999,0.0,0.0,91,0.00,,,0.00,pywws,2013-09-21 08:11:00,
2013-09-21 01:16:00,57.0,54.4,29.65,North,-999,0.0,0.0,91,0.00,,,0.00,pywws,2013-09-21 08:16:00,
2013-09-21 01:21:00,57.2,54.3,29.65,North,-999,0.0,0.0,90,0.00,,,0.00,pywws,2013-09-21 08:21:00,
2013-09-21 01:26:00,57.2,54.3,29.65,North,-999,0.0,0.0,90,0.00,,,0.00,pywws,2013-09-21 08:26:00,
2013-09-21 01:31:00,57.2,54.3,29.65,North,-999,0.0,0.0,90,0.00,,,0.00,pywws,2013-09-21 08:31:00,
2013-09-21 01:36:00,57.2,54.3,29.65,North,-999,0.0,0.0,90,0.00,,,0.00,pywws,2013-09-21 08:36:00,
2013-09-21 01:41:00,57.4,54.5,29.65,North,-999,0.0,0.0,90,0.00,,,0.00,pywws,2013-09-21 08:41:00,
2013-09-21 01:46:00,57.2,54.3,29.65,North,-999,0.0,0.0,90,0.00,,,0.00,pywws,2013-09-21 08:46:00,
2013-09-21 01:51:00,57.2,54.3,29.65,North,-999,0.0,0.0,90,0.00,,,0.00,pywws,2013-09-21 08:51:00,
2013-09-21 01:56:00,57.2,54.3,29.65,North,-999,0.0,0.0,90,0.00,,,0.00,pywws,2013-09-21 08:56:00,
2013-09-21 02:01:00,57.2,54.3,29.65,North,-999,0.0,0.0,90,0.00,,,0.00,pywws,2013-09-21 09:01:00,
2013-09-21 02:06:00,57.2,54.3,29.65,North,-999,0.0,0.0,90,0.00,,,0.00,pywws,2013-09-21 09:06:00,
2013-09-21 02:11:00,57.0,54.4,29.65,North,-999,0.0,0.0,91,0.00,,,0.00,pywws,2013-09-21 09:11:00,
2013-09-21 02:16:00,57.0,54.4,29.65,North,-999,0.0,0.0,91,0.00,,,0.00,pywws,2013-09-21 09:16:00,
2013-09-21 02:21:00,57.0,54.4,29.65,North,-999,0.0,0.0,91,0.00,,,0.00,pywws,2013-09-21 09:21:00,
2013-09-21 02:26:00,57.0,54.4,29.65,North,-999,0.0,0.0,91,0.00,,,0.00,pywws,2013-09-21 09:26:00,
2013-09-21 02:31:00,57.0,54.4,29.65,North,-999,0.0,0.0,91,0.00,,,0.00,pywws,2013-09-21 09:31:00,
2013-09-21 02:36:00,56.8,54.2,29.65,North,-999,0.0,0.0,91,0.00,,,0.00,pywws,2013-09-21 09:36:00,
2013-09-21 02:41:00,56.8,54.2,29.65,North,-999,0.0,0.0,91,0.00,,,0.00,pywws,2013-09-21 09:41:00,
2013-09-21 02:46:00,56.8,54.2,29.65,North,-999,0.0,0.0,91,0.00,,,0.00,pywws,2013-09-21 09:46:00,
2013-09-21 02:51:00,57.0,54.4,29.64,North,-999,0.0,0.0,91,0.00,,,0.00,pywws,2013-09-21 09:51:00,
2013-09-21 02:56:00,56.8,54.2,29.65,North,-999,0.0,0.0,91,0.00,,,0.00,pywws,2013-09-21 09:56:00,
2013-09-21 03:01:00,56.7,54.1,29.65,North,-999,0.0,0.0,91,0.00,,,0.00,pywws,2013-09-21 10:01:00,
2013-09-21 03:06:00,56.7,54.1,29.65,North,-999,0.0,0.0,91,0.00,,,0.00,pywws,2013-09-21 10:06:00,
2013-09-21 03:11:00,57.0,54.4,29.65,North,-999,0.0,0.0,91,0.00,,,0.00,pywws,2013-09-21 10:11:00,
2013-09-21 03:16:00,57.0,54.4,29.65,North,-999,0.0,0.0,91,0.00,,,0.00,pywws,2013-09-21 10:16:00,
2013-09-21 03:21:00,57.0,54.4,29.65,North,-999,0.0,0.0,91,0.00,,,0.00,pywws,2013-09-21 10:21:00,
2013-09-21 03:26:00,57.0,54.4,29.65,North,-999,0.0,0.0,91,0.00,,,0.00,pywws,2013-09-21 10:26:00,
2013-09-21 03:31:00,57.0,54.4,29.65,North,-999,0.0,0.0,91,0.00,,,0.00,pywws,2013-09-21 10:31:00,
2013-09-21 03:36:00,57.0,54.4,29.65,North,-999,0.0,0.0,91,0.00,,,0.00,pywws,2013-09-21 10:36:00,
2013-09-21 03:41:00,57.0,54.4,29.65,North,-999,0.0,0.0,91,0.00,,,0.00,pywws,2013-09-21 10:41:00,
2013-09-21 03:46:00,57.0,54.4,29.65,North,-999,0.0,0.0,91,0.00,,,0.00,pywws,2013-09-21 10:46:00,
2013-09-21 03:51:00,57.0,54.4,29.65,North,-999,0.0,0.0,91,0.00,,,0.00,pywws,2013-09-21 10:51:00,
2013-09-21 03:56:00,57.0,54.4,29.65,North,-999,0.0,0.0,91,0.00,,,0.00,pywws,2013-09-21 10:56:00,
2013-09-21 04:01:00,57.2,54.3,29.65,North,-999,0.0,0.0,90,0.00,,,0.00,pywws,2013-09-21 11:01:00,
2013-09-21 04:06:00,57.2,54.3,29.65,North,-999,0.0,0.0,90,0.00,,,0.00,pywws,2013-09-21 11:06:00,
2013-09-21 04:11:00,57.2,54.3,29.65,North,-999,0.0,0.0,90,0.00,,,0.00,pywws,2013-09-21 11:11:00,
2013-09-21 04:16:00,57.2,54.3,29.66,North,-999,0.0,0.0,90,0.00,,,0.00,pywws,2013-09-21 11:16:00,
2013-09-21 04:21:00,57.2,54.3,29.65,North,-999,0.0,0.0,90,0.00,,,0.00,pywws,2013-09-21 11:21:00,
2013-09-21 04:26:00,57.2,54.3,29.66,North,-999,0.0,0.0,90,0.00,,,0.00,pywws,2013-09-21 11:26:00,
2013-09-21 04:31:00,57.2,54.3,29.66,North,-999,0.0,0.0,90,0.00,,,0.00,pywws,2013-09-21 11:31:00,
2013-09-21 04:36:00,57.2,54.3,29.66,North,-999,0.0,0.0,90,0.00,,,0.00,pywws,2013-09-21 11:36:00,
2013-09-21 04:41:00,57.2,54.3,29.65,North,-999,0.0,0.0,90,0.00,,,0.00,pywws,2013-09-21 11:41:00,
2013-09-21 04:46:00,57.2,54.3,29.66,North,-999,0.0,0.0,90,0.00,,,0.00,pywws,2013-09-21 11:46:00,
2013-09-21 04:51:00,57.2,54.3,29.66,North,-999,0.0,0.0,90,0.00,,,0.00,pywws,2013-09-21 11:51:00,
2013-09-21 04:56:00,57.2,54.3,29.66,North,-999,0.0,0.0,90,0.00,,,0.00,pywws,2013-09-21 11:56:00,
2013-09-21 05:01:00,57.2,54.3,29.66,North,-999,0.0,0.0,90,0.00,,,0.00,pywws,2013-09-21 12:01:00,
2013-09-21 05:06:00,57.2,54.3,29.66,North,-999,0.0,0.0,90,0.00,,,0.00,pywws,2013-09-21 12:06:00,
2013-09-21 05:11:00,57.0,54.4,29.66,North,-999,0.0,0.0,91,0.00,,,0.00,pywws,2013-09-21 12:11:00,
2013-09-21 05:16:00,57.2,54.3,29.66,North,-999,0.0,0.0,90,0.00,,,0.00,pywws,2013-09-21 12:16:00,
2013-09-21 05:21:00,57.2,54.3,29.66,North,-999,0.0,0.0,90,0.00,,,0.00,pywws,2013-09-21 12:21:00,
2013-09-21 05:26:00,57.2,54.3,29.66,North,-999,0.0,0.0,90,0.00,,,0.00,pywws,2013-09-21 12:26:00,
2013-09-21 05:31:00,57.0,54.4,29.66,North,-999,0.0,0.0,91,0.00,,,0.00,pywws,2013-09-21 12:31:00,
2013-09-21 05:36:00,57.0,54.4,29.66,North,-999,0.0,0.0,91,0.00,,,0.00,pywws,2013-09-21 12:36:00,
2013-09-21 05:41:00,57.0,54.4,29.66,North,-999,0.0,0.0,91,0.00,,,0.00,pywws,2013-09-21 12:41:00,
2013-09-21 05:46:00,56.8,54.2,29.66,North,-999,0.0,0.0,91,0.00,,,0.00,pywws,2013-09-21 12:46:00,
2013-09-21 05:51:00,57.0,54.4,29.66,North,-999,0.0,0.0,91,0.00,,,0.00,pywws,2013-09-21 12:51:00,
2013-09-21 05:56:00,56.8,54.2,29.66,North,-999,0.0,0.7,91,0.00,,,0.00,pywws,2013-09-21 12:56:00,
2013-09-21 06:01:00,56.8,54.2,29.66,North,-999,0.0,0.0,91,0.00,,,0.00,pywws,2013-09-21 13:01:00,
2013-09-21 06:06:00,56.8,54.2,29.66,SW,225,0.7,1.6,91,0.00,,,0.00,pywws,2013-09-21 13:06:00,
2013-09-21 06:11:00,56.8,54.2,29.66,North,-999,0.0,0.0,91,0.00,,,0.00,pywws,2013-09-21 13:11:00,
2013-09-21 06:16:00,56.8,54.2,29.66,North,-999,0.0,0.0,91,0.00,,,0.00,pywws,2013-09-21 13:16:00,
2013-09-21 06:21:00,56.8,54.2,29.66,North,-999,0.0,0.0,91,0.00,,,0.00,pywws,2013-09-21 13:21:00,
2013-09-21 06:26:00,56.8,54.2,29.66,North,-999,0.0,0.0,91,0.00,,,0.00,pywws,2013-09-21 13:26:00,
2013-09-21 06:31:00,56.7,53.8,29.67,North,-999,0.0,0.0,90,0.00,,,0.00,pywws,2013-09-21 13:31:00,
2013-09-21 06:36:00,56.8,53.9,29.67,North,-999,0.0,1.6,90,0.00,,,0.00,pywws,2013-09-21 13:36:00,
2013-09-21 06:41:00,57.0,54.1,29.67,North,-999,0.0,0.0,90,0.00,,,0.00,pywws,2013-09-21 13:41:00,
2013-09-21 06:46:00,56.8,53.9,29.67,North,-999,0.0,0.0,90,0.00,,,0.00,pywws,2013-09-21 13:46:00,
2013-09-21 06:51:00,56.8,53.9,29.67,North,-999,0.0,0.0,90,0.00,,,0.00,pywws,2013-09-21 13:51:00,
2013-09-21 06:56:00,56.7,53.8,29.67,North,-999,0.0,0.0,90,0.00,,,0.00,pywws,2013-09-21 13:56:00,
2013-09-21 07:01:00,56.8,53.9,29.67,North,-999,0.0,0.0,90,0.00,,,0.00,pywws,2013-09-21 14:01:00,
2013-09-21 07:06:00,56.8,53.9,29.68,North,-999,0.0,0.0,90,0.00,,,0.00,pywws,2013-09-21 14:06:00,
2013-09-21 07:11:00,56.8,53.9,29.68,North,-999,0.0,0.0,90,0.00,,,0.00,pywws,2013-09-21 14:11:00,
2013-09-21 07:16:00,56.8,53.9,29.68,North,-999,0.0,0.0,90,0.00,,,0.00,pywws,2013-09-21 14:16:00,
2013-09-21 07:21:00,56.8,53.9,29.68,North,-999,0.0,0.0,90,0.00,,,0.00,pywws,2013-09-21 14:21:00,
2013-09-21 07:26:00,56.8,53.9,29.68,North,-999,0.0,0.0,90,0.00,,,0.00,pywws,2013-09-21 14:26:00,
2013-09-21 07:31:00,56.8,53.9,29.68,North,-999,0.0,0.0,90,0.00,,,0.00,pywws,2013-09-21 14:31:00,
2013-09-21 07:36:00,56.7,53.8,29.68,North,-999,0.0,0.0,90,0.00,,,0.00,pywws,2013-09-21 14:36:00,
2013-09-21 07:41:00,56.8,53.9,29.68,North,-999,0.0,0.0,90,0.00,,,0.00,pywws,2013-09-21 14:41:00,
2013-09-21 07:46:00,56.8,53.9,29.69,North,-999,0.0,0.0,90,0.00,,,0.00,pywws,2013-09-21 14:46:00,
2013-09-21 07:51:00,56.8,53.9,29.68,North,-999,0.0,0.0,90,0.00,,,0.00,pywws,2013-09-21 14:51:00,
2013-09-21 08:01:00,56.7,53.8,29.69,North,-999,0.0,0.0,90,0.00,,,0.00,pywws,2013-09-21 15:01:00,
2013-09-21 08:06:00,56.7,53.8,29.69,North,-999,0.0,0.0,90,0.00,,,0.00,pywws,2013-09-21 15:06:00,
2013-09-21 08:11:00,56.8,53.9,29.69,North,-999,0.0,0.0,90,0.00,,,0.00,pywws,2013-09-21 15:11:00,
2013-09-21 08:16:00,56.8,53.9,29.69,North,-999,0.0,0.0,90,0.00,,,0.00,pywws,2013-09-21 15:16:00,
2013-09-21 08:21:00,57.0,54.1,29.70,North,-999,0.0,0.0,90,0.00,,,0.00,pywws,2013-09-21 15:21:00,
2013-09-21 08:26:00,57.0,54.1,29.69,North,-999,0.0,0.0,90,0.00,,,0.00,pywws,2013-09-21 15:26:00,
2013-09-21 08:31:00,57.4,54.2,29.69,North,-999,0.0,0.0,89,0.00,,,0.00,pywws,2013-09-21 15:31:00,
2013-09-21 08:36:00,57.4,54.2,29.69,North,-999,0.0,0.0,89,0.00,,,0.00,pywws,2013-09-21 15:36:00,
2013-09-21 08:41:00,57.6,54.3,29.69,North,-999,0.0,0.0,89,0.00,,,0.00,pywws,2013-09-21 15:41:00,
2013-09-21 08:46:00,57.6,54.0,29.69,North,-999,0.0,0.0,88,0.00,,,0.00,pywws,2013-09-21 15:46:00,
2013-09-21 08:51:00,57.4,53.9,29.69,North,-999,0.0,0.0,88,0.00,,,0.00,pywws,2013-09-21 15:51:00,
2013-09-21 09:01:00,57.6,54.0,29.69,North,-999,0.0,0.0,88,0.00,,,0.00,pywws,2013-09-21 16:01:00,
2013-09-21 09:06:00,57.7,54.2,29.69,North,-999,0.0,0.0,88,0.00,,,0.00,pywws,2013-09-21 16:06:00,
2013-09-21 09:11:00,57.7,54.2,29.69,North,-999,0.0,0.0,88,0.00,,,0.00,pywws,2013-09-21 16:11:00,
2013-09-21 09:16:00,58.1,54.6,29.69,North,-999,0.0,0.0,88,0.00,,,0.00,pywws,2013-09-21 16:16:00,
2013-09-21 09:21:00,58.3,54.7,29.69,North,-999,0.0,0.0,88,0.00,,,0.00,pywws,2013-09-21 16:21:00,
2013-09-21 09:26:00,58.3,54.7,29.70,North,-999,0.0,0.0,88,0.00,,,0.00,pywws,2013-09-21 16:26:00,
2013-09-21 09:31:00,58.6,54.8,29.70,North,-999,0.0,0.0,87,0.00,,,0.00,pywws,2013-09-21 16:31:00,
2013-09-21 09:36:00,59.0,54.8,29.70,North,-999,0.0,0.0,86,0.00,,,0.00,pywws,2013-09-21 16:36:00,
2013-09-21 09:41:00,58.6,54.8,29.70,North,-999,0.0,0.0,87,0.00,,,0.00,pywws,2013-09-21 16:41:00,
2013-09-21 09:46:00,58.8,55.0,29.70,North,-999,0.0,0.0,87,0.00,,,0.00,pywws,2013-09-21 16:46:00,
2013-09-21 09:51:00,58.5,54.6,29.70,North,-999,0.0,0.0,87,0.00,,,0.00,pywws,2013-09-21 16:51:00,
2013-09-21 10:01:00,58.3,54.1,29.70,North,-999,0.0,0.0,86,0.00,,,0.00,pywws,2013-09-21 17:01:00,
2013-09-21 10:06:00,57.9,53.4,29.70,North,-999,0.0,0.0,85,0.00,,,0.00,pywws,2013-09-21 17:06:00,
2013-09-21 10:11:00,58.1,53.6,29.70,North,-999,0.0,0.0,85,0.00,,,0.00,pywws,2013-09-21 17:11:00,
2013-09-21 10:16:00,58.3,54.1,29.70,North,-999,0.0,0.0,86,0.00,,,0.00,pywws,2013-09-21 17:16:00,
2013-09-21 10:21:00,58.8,54.6,29.70,North,-999,0.0,0.0,86,0.00,,,0.00,pywws,2013-09-21 17:21:00,
2013-09-21 10:26:00,58.5,54.0,29.70,North,-999,0.0,0.0,85,0.00,,,0.00,pywws,2013-09-21 17:26:00,
2013-09-21 10:31:00,58.3,53.8,29.70,North,-999,0.0,0.0,85,0.00,,,0.00,pywws,2013-09-21 17:31:00,
2013-09-21 10:36:00,57.9,53.4,29.70,North,-999,0.0,0.0,85,0.00,,,0.00,pywws,2013-09-21 17:36:00,
2013-09-21 10:41:00,58.1,53.6,29.70,NW,315,0.7,1.6,85,0.00,,,0.00,pywws,2013-09-21 17:41:00,
2013-09-21 10:46:00,58.1,53.3,29.70,North,-999,0.0,0.0,84,0.00,,,0.00,pywws,2013-09-21 17:46:00,
2013-09-21 10:51:00,57.7,52.9,29.70,North,-999,0.0,0.0,84,0.00,,,0.00,pywws,2013-09-21 17:51:00,
2013-09-21 11:01:00,57.9,53.1,29.70,North,-999,0.0,0.0,84,0.00,,,0.00,pywws,2013-09-21 18:01:00,
2013-09-21 11:06:00,58.1,53.3,29.70,North,-999,0.0,0.0,84,0.00,,,0.00,pywws,2013-09-21 18:06:00,
2013-09-21 11:11:00,58.6,53.8,29.71,North,-999,0.0,0.0,84,0.00,,,0.00,pywws,2013-09-21 18:11:00,
2013-09-21 11:16:00,59.0,53.8,29.71,North,-999,0.0,0.0,83,0.00,,,0.00,pywws,2013-09-21 18:16:00,
2013-09-21 11:21:00,59.4,54.2,29.71,North,-999,0.0,0.0,83,0.00,,,0.00,pywws,2013-09-21 18:21:00,
2013-09-21 11:26:00,59.5,54.4,29.70,North,-999,0.0,0.0,83,0.00,,,0.00,pywws,2013-09-21 18:26:00,
2013-09-21 11:31:00,59.5,54.0,29.70,North,-999,0.0,0.0,82,0.00,,,0.00,pywws,2013-09-21 18:31:00,
2013-09-21 11:36:00,59.2,54.0,29.71,North,-999,0.0,0.0,83,0.00,,,0.00,pywws,2013-09-21 18:36:00,
2013-09-21 11:41:00,59.0,53.8,29.70,North,-999,0.0,0.0,83,0.00,,,0.00,pywws,2013-09-21 18:41:00,
2013-09-21 11:46:00,59.2,54.0,29.71,North,-999,0.0,0.0,83,0.00,,,0.00,pywws,2013-09-21 18:46:00,
2013-09-21 11:51:00,59.2,53.7,29.70,North,-999,0.0,0.0,82,0.00,,,0.00,pywws,2013-09-21 18:51:00,
2013-09-21 12:01:00,59.4,53.5,29.70,North,-999,0.0,0.0,81,0.00,,,0.00,pywws,2013-09-21 19:01:00,
2013-09-21 12:06:00,59.5,53.4,29.70,North,-999,0.0,0.0,80,0.00,,,0.00,pywws,2013-09-21 19:06:00,
2013-09-21 12:11:00,59.9,53.7,29.70,North,-999,0.0,0.0,80,0.00,,,0.00,pywws,2013-09-21 19:11:00,
2013-09-21 12:16:00,60.3,54.1,29.70,North,-999,0.0,0.0,80,0.00,,,0.00,pywws,2013-09-21 19:16:00,
2013-09-21 12:21:00,60.3,53.7,29.70,North,-999,0.0,0.0,79,0.00,,,0.00,pywws,2013-09-21 19:21:00,
2013-09-21 12:26:00,60.3,53.7,29.70,North,-999,0.0,0.0,79,0.00,,,0.00,pywws,2013-09-21 19:26:00,
2013-09-21 12:31:00,60.8,53.5,29.70,NW,315,1.6,2.2,77,0.00,,,0.00,pywws,2013-09-21 19:31:00,
2013-09-21 12:36:00,61.0,53.4,29.70,NW,315,1.6,2.2,76,0.00,,,0.00,pywws,2013-09-21 19:36:00,
2013-09-21 12:41:00,61.3,53.7,29.70,North,-999,0.0,0.0,76,0.00,,,0.00,pywws,2013-09-21 19:41:00,
2013-09-21 12:46:00,61.3,53.7,29.70,North,-999,0.0,0.0,76,0.00,,,0.00,pywws,2013-09-21 19:46:00,
2013-09-21 12:51:00,61.5,53.2,29.70,North,-999,0.0,0.0,74,0.00,,,0.00,pywws,2013-09-21 19:51:00,
2013-09-21 13:01:00,61.3,53.3,29.70,North,-999,0.0,0.0,75,0.00,,,0.00,pywws,2013-09-21 20:01:00,
2013-09-21 13:06:00,61.9,53.5,29.70,North,-999,0.0,0.0,74,0.00,,,0.00,pywws,2013-09-21 20:06:00,
2013-09-21 13:11:00,62.2,53.8,29.70,North,-999,0.0,0.0,74,0.00,,,0.00,pywws,2013-09-21 20:11:00,
2013-09-21 13:16:00,63.3,54.5,29.70,North,-999,0.0,0.0,73,0.00,,,0.00,pywws,2013-09-21 20:16:00,
2013-09-21 13:21:00,65.1,55.5,29.69,North,-999,0.0,0.0,71,0.00,,,0.00,pywws,2013-09-21 20:21:00,
2013-09-21 13:26:00,65.1,55.1,29.70,North,-999,0.0,0.7,70,0.00,,,0.00,pywws,2013-09-21 20:26:00,
2013-09-21 13:31:00,65.7,54.4,29.69,NW,315,1.6,2.2,67,0.00,,,0.00,pywws,2013-09-21 20:31:00,
2013-09-21 13:36:00,66.2,54.1,29.69,NW,315,0.7,1.6,65,0.00,,,0.00,pywws,2013-09-21 20:36:00,
2013-09-21 13:41:00,63.9,53.1,29.69,North,-999,0.0,1.6,68,0.00,,,0.00,pywws,2013-09-21 20:41:00,
2013-09-21 13:46:00,63.3,53.4,29.69,North,-999,0.0,0.7,70,0.00,,,0.00,pywws,2013-09-21 20:46:00,
2013-09-21 13:51:00,63.9,53.9,29.68,North,-999,0.0,0.0,70,0.00,,,0.00,pywws,2013-09-21 20:51:00,
2013-09-21 14:01:00,64.4,53.6,29.68,North,-999,0.0,0.0,68,0.00,,,0.00,pywws,2013-09-21 21:01:00,
2013-09-21 14:06:00,67.8,56.0,29.68,North,-999,0.0,0.0,66,0.00,,,0.00,pywws,2013-09-21 21:06:00,
2013-09-21 14:11:00,68.9,57.1,29.68,North,-999,0.0,0.0,66,0.00,,,0.00,pywws,2013-09-21 21:11:00,
2013-09-21 14:16:00,69.8,57.1,29.68,North,-999,0.0,0.0,64,0.00,,,0.00,pywws,2013-09-21 21:16:00,
2013-09-21 14:21:00,69.1,56.4,29.67,North,-999,0.0,0.0,64,0.00,,,0.00,pywws,2013-09-21 21:21:00,
2013-09-21 14:26:00,69.1,56.4,29.68,North,-999,0.0,0.0,64,0.00,,,0.00,pywws,2013-09-21 21:26:00,
2013-09-21 14:31:00,68.0,55.4,29.67,North,-999,0.0,0.0,64,0.00,,,0.00,pywws,2013-09-21 21:31:00,
2013-09-21 14:36:00,67.8,56.0,29.68,North,-999,0.0,0.0,66,0.00,,,0.00,pywws,2013-09-21 21:36:00,
2013-09-21 14:41:00,68.2,55.5,29.67,North,-999,0.0,0.0,64,0.00,,,0.00,pywws,2013-09-21 21:41:00,
2013-09-21 14:46:00,67.5,55.7,29.67,North,-999,0.0,0.0,66,0.00,,,0.00,pywws,2013-09-21 21:46:00,
2013-09-21 14:51:00,66.0,54.7,29.68,North,-999,0.0,0.0,67,0.00,,,0.00,pywws,2013-09-21 21:51:00,
2013-09-21 15:01:00,67.1,54.9,29.67,North,-999,0.0,0.0,65,0.00,,,0.00,pywws,2013-09-21 22:01:00,
2013-09-21 15:06:00,67.3,54.7,29.67,North,-999,0.0,0.0,64,0.00,,,0.00,pywws,2013-09-21 22:06:00,
2013-09-21 15:11:00,66.4,53.8,29.67,North,-999,0.0,0.0,64,0.00,,,0.00,pywws,2013-09-21 22:11:00,
2013-09-21 15:16:00,65.8,54.2,29.67,North,-999,0.0,0.0,66,0.00,,,0.00,pywws,2013-09-21 22:16:00,
2013-09-21 15:21:00,67.3,51.0,29.67,North,-999,0.0,0.0,56,0.00,,,0.00,pywws,2013-09-21 22:21:00,
2013-09-21 15:26:00,65.5,53.8,29.67,NW,315,2.2,3.8,66,0.00,,,0.00,pywws,2013-09-21 22:26:00,
2013-09-21 15:31:00,66.2,53.7,29.67,North,-999,0.0,0.0,64,0.00,,,0.00,pywws,2013-09-21 22:31:00,
2013-09-21 15:36:00,65.8,54.2,29.67,North,-999,0.0,0.0,66,0.00,,,0.00,pywws,2013-09-21 22:36:00,
2013-09-21 15:41:00,65.8,53.7,29.67,North,-999,0.0,0.0,65,0.00,,,0.00,pywws,2013-09-21 22:41:00,
2013-09-21 15:46:00,65.7,53.1,29.67,North,-999,0.0,0.0,64,0.00,,,0.00,pywws,2013-09-21 22:46:00,
2013-09-21 15:51:00,65.8,52.0,29.67,NW,315,1.6,3.1,61,0.00,,,0.00,pywws,2013-09-21 22:51:00,
2013-09-21 16:01:00,66.0,52.2,29.67,North,-999,0.0,0.0,61,0.00,,,0.00,pywws,2013-09-21 23:01:00,
2013-09-21 16:06:00,66.2,51.9,29.67,North,-999,0.0,0.0,60,0.00,,,0.00,pywws,2013-09-21 23:06:00,
2013-09-21 16:11:00,65.8,52.4,29.67,North,-999,0.0,0.0,62,0.00,,,0.00,pywws,2013-09-21 23:11:00,
2013-09-21 16:16:00,65.3,53.2,29.67,North,-999,0.0,0.0,65,0.00,,,0.00,pywws,2013-09-21 23:16:00,
2013-09-21 16:21:00,65.8,53.3,29.67,North,-999,0.0,0.0,64,0.00,,,0.00,pywws,2013-09-21 23:21:00,
2013-09-21 16:26:00,65.8,53.3,29.66,North,-999,0.0,0.0,64,0.00,,,0.00,pywws,2013-09-21 23:26:00,
2013-09-21 16:31:00,65.5,53.0,29.67,North,-999,0.0,0.0,64,0.00,,,0.00,pywws,2013-09-21 23:31:00,
2013-09-21 16:36:00,65.1,53.5,29.67,North,-999,0.0,0.0,66,0.00,,,0.00,pywws,2013-09-21 23:36:00,
2013-09-21 16:41:00,65.7,53.6,29.67,North,-999,0.0,0.0,65,0.00,,,0.00,pywws,2013-09-21 23:41:00,
2013-09-21 16:46:00,65.1,53.1,29.67,North,-999,0.0,0.0,65,0.00,,,0.00,pywws,2013-09-21 23:46:00,
2013-09-21 16:51:00,65.1,53.5,29.67,North,-999,0.0,0.0,66,0.00,,,0.00,pywws,2013-09-21 23:51:00,
2013-09-21 17:01:00,65.3,52.8,29.66,North,-999,0.0,0.0,64,0.00,,,0.00,pywws,2013-09-22 00:01:00,
2013-09-21 17:06:00,64.8,52.7,29.67,North,-999,0.0,0.0,65,0.00,,,0.00,pywws,2013-09-22 00:06:00,
2013-09-21 17:11:00,64.2,52.6,29.67,North,-999,0.0,0.0,66,0.00,,,0.00,pywws,2013-09-22 00:11:00,
2013-09-21 17:16:00,63.7,52.9,29.67,North,-999,0.0,0.0,68,0.00,,,0.00,pywws,2013-09-22 00:16:00,
2013-09-21 17:21:00,63.1,52.4,29.67,North,-999,0.0,0.0,68,0.00,,,0.00,pywws,2013-09-22 00:21:00,
2013-09-21 17:26:00,63.3,52.2,29.66,NW,315,0.7,2.2,67,0.00,,,0.00,pywws,2013-09-22 00:26:00,
2013-09-21 17:31:00,62.6,51.1,29.66,North,-999,0.0,0.0,66,0.00,,,0.00,pywws,2013-09-22 00:31:00,
2013-09-21 17:36:00,61.9,51.2,29.67,North,-999,0.0,0.0,68,0.00,,,0.00,pywws,2013-09-22 00:36:00,
2013-09-21 17:41:00,61.9,50.8,29.67,North,-999,0.0,0.0,67,0.00,,,0.00,pywws,2013-09-22 00:41:00,
2013-09-21 17:46:00,61.7,51.4,29.67,North,-999,0.0,0.0,69,0.00,,,0.00,pywws,2013-09-22 00:46:00,
2013-09-21 17:51:00,61.2,51.7,29.67,North,-999,0.0,0.0,71,0.00,,,0.00,pywws,2013-09-22 00:51:00,
2013-09-21 17:56:00,61.5,51.6,29.67,North,-999,0.0,0.0,70,0.00,,,0.00,pywws,2013-09-22 00:56:00,
2013-09-21 18:01:00,61.5,52.4,29.67,North,-999,0.0,0.0,72,0.00,,,0.00,pywws,2013-09-22 01:01:00,
2013-09-21 18:06:00,61.0,51.9,29.67,North,-999,0.0,0.0,72,0.00,,,0.00,pywws,2013-09-22 01:06:00,
2013-09-21 18:11:00,61.0,51.9,29.67,North,-999,0.0,0.0,72,0.00,,,0.00,pywws,2013-09-22 01:11:00,
2013-09-21 18:16:00,60.6,51.9,29.67,North,-999,0.0,0.0,73,0.00,,,0.00,pywws,2013-09-22 01:16:00,
2013-09-21 18:21:00,60.3,51.6,29.67,North,-999,0.0,0.0,73,0.00,,,0.00,pywws,2013-09-22 01:21:00,
2013-09-21 18:26:00,60.3,51.6,29.67,North,-999,0.0,0.0,73,0.00,,,0.00,pywws,2013-09-22 01:26:00,
2013-09-21 18:31:00,60.1,51.8,29.67,North,-999,0.0,0.0,74,0.00,,,0.00,pywws,2013-09-22 01:31:00,
2013-09-21 18:36:00,59.7,51.4,29.68,North,-999,0.0,0.0,74,0.00,,,0.00,pywws,2013-09-22 01:36:00,
2013-09-21 18:41:00,59.4,51.4,29.68,North,-999,0.0,0.0,75,0.00,,,0.00,pywws,2013-09-22 01:41:00,
2013-09-21 18:46:00,59.5,52.0,29.68,North,-999,0.0,0.0,76,0.00,,,0.00,pywws,2013-09-22 01:46:00,
2013-09-21 18:51:00,59.0,51.1,29.68,North,-999,0.0,0.0,75,0.00,,,0.00,pywws,2013-09-22 01:51:00,
2013-09-21 19:01:00,58.8,51.6,29.68,North,-999,0.0,0.0,77,0.00,,,0.00,pywws,2013-09-22 02:01:00,
2013-09-21 19:06:00,59.0,51.8,29.68,North,-999,0.0,0.0,77,0.00,,,0.00,pywws,2013-09-22 02:06:00,
2013-09-21 19:11:00,58.5,51.6,29.69,North,-999,0.0,0.0,78,0.00,,,0.00,pywws,2013-09-22 02:11:00,
2013-09-21 19:16:00,58.5,52.0,29.69,North,-999,0.0,0.0,79,0.00,,,0.00,pywws,2013-09-22 02:16:00,
2013-09-21 19:21:00,58.3,51.8,29.69,North,-999,0.0,0.0,79,0.00,,,0.00,pywws,2013-09-22 02:21:00,
2013-09-21 19:26:00,58.3,51.8,29.69,North,-999,0.0,0.0,79,0.00,,,0.00,pywws,2013-09-22 02:26:00,
2013-09-21 19:31:00,58.3,51.8,29.69,North,-999,0.0,0.0,79,0.00,,,0.00,pywws,2013-09-22 02:31:00,
2013-09-21 19:36:00,58.5,52.0,29.70,North,-999,0.0,0.0,79,0.00,,,0.00,pywws,2013-09-22 02:36:00,
2013-09-21 19:41:00,58.5,52.3,29.70,North,-999,0.0,0.0,80,0.00,,,0.00,pywws,2013-09-22 02:41:00,
2013-09-21 19:46:00,58.6,52.5,29.70,North,-999,0.0,0.0,80,0.00,,,0.00,pywws,2013-09-22 02:46:00,
2013-09-21 19:51:00,58.6,52.5,29.70,North,-999,0.0,0.0,80,0.00,,,0.00,pywws,2013-09-22 02:51:00,
2013-09-21 19:56:00,58.8,52.7,29.70,North,-999,0.0,0.0,80,0.00,,,0.00,pywws,2013-09-22 02:56:00,
2013-09-21 20:01:00,59.2,52.7,29.70,North,-999,0.0,0.0,79,0.00,,,0.00,pywws,2013-09-22 03:01:00,
2013-09-21 20:06:00,59.7,52.5,29.70,North,-999,0.0,0.7,77,0.00,,,0.00,pywws,2013-09-22 03:06:00,
2013-09-21 20:11:00,59.5,52.3,29.70,North,-999,0.0,0.0,77,0.00,,,0.00,pywws,2013-09-22 03:11:00,
2013-09-21 20:16:00,58.5,51.6,29.70,NW,315,0.7,2.2,78,0.00,,,0.00,pywws,2013-09-22 03:16:00,
2013-09-21 20:21:00,57.7,50.9,29.70,North,-999,0.0,0.0,78,0.00,,,0.00,pywws,2013-09-22 03:21:00,
2013-09-21 20:26:00,57.7,50.9,29.70,North,-999,0.0,1.6,78,0.00,,,0.00,pywws,2013-09-22 03:26:00,
2013-09-21 20:31:00,57.9,51.4,29.70,North,-999,0.0,0.0,79,0.00,,,0.00,pywws,2013-09-22 03:31:00,
2013-09-21 20:36:00,57.9,51.4,29.70,North,-999,0.0,0.0,79,0.00,,,0.00,pywws,2013-09-22 03:36:00,
2013-09-21 20:41:00,58.1,52.0,29.70,North,-999,0.0,0.0,80,0.00,,,0.00,pywws,2013-09-22 03:41:00,
2013-09-21 20:46:00,58.3,52.1,29.70,North,-999,0.0,0.0,80,0.00,,,0.00,pywws,2013-09-22 03:46:00,
2013-09-21 20:51:00,57.9,51.8,29.70,NW,315,0.7,1.6,80,0.00,,,0.00,pywws,2013-09-22 03:51:00,
2013-09-21 21:01:00,58.1,52.3,29.70,North,-999,0.0,0.0,81,0.00,,,0.00,pywws,2013-09-22 04:01:00,
2013-09-21 21:06:00,57.9,52.1,29.70,North,-999,0.0,0.0,81,0.00,,,0.00,pywws,2013-09-22 04:06:00,
2013-09-21 21:11:00,57.9,52.1,29.70,North,-999,0.0,0.0,81,0.00,,,0.00,pywws,2013-09-22 04:11:00,
2013-09-21 21:16:00,57.7,51.9,29.70,North,-999,0.0,0.0,81,0.00,,,0.00,pywws,2013-09-22 04:16:00,
2013-09-21 21:21:00,57.9,51.8,29.70,North,-999,0.0,0.0,80,0.00,,,0.00,pywws,2013-09-22 04:21:00,
2013-09-21 21:26:00,58.1,52.3,29.70,North,-999,0.0,0.0,81,0.00,,,0.00,pywws,2013-09-22 04:26:00,
2013-09-21 21:31:00,57.9,52.1,29.70,North,-999,0.0,0.0,81,0.00,,,0.00,pywws,2013-09-22 04:31:00,
2013-09-21 21:36:00,57.9,52.1,29.70,North,-999,0.0,0.0,81,0.00,,,0.00,pywws,2013-09-22 04:36:00,
2013-09-21 21:41:00,57.9,52.1,29.70,North,-999,0.0,0.0,81,0.00,,,0.00,pywws,2013-09-22 04:41:00,
2013-09-21 21:46:00,57.9,52.1,29.70,North,-999,0.0,0.0,81,0.00,,,0.00,pywws,2013-09-22 04:46:00,
2013-09-21 21:51:00,57.7,52.3,29.70,North,-999,0.0,0.0,82,0.00,,,0.00,pywws,2013-09-22 04:51:00,
2013-09-21 22:01:00,57.9,52.1,29.70,North,-999,0.0,0.0,81,0.00,,,0.00,pywws,2013-09-22 05:01:00,
2013-09-21 22:06:00,57.6,51.8,29.70,North,-999,0.0,0.0,81,0.00,,,0.00,pywws,2013-09-22 05:06:00,
2013-09-21 22:11:00,57.6,51.8,29.70,North,-999,0.0,0.0,81,0.00,,,0.00,pywws,2013-09-22 05:11:00,
2013-09-21 22:16:00,57.6,51.8,29.70,North,-999,0.0,0.0,81,0.00,,,0.00,pywws,2013-09-22 05:16:00,
2013-09-21 22:21:00,57.4,51.6,29.70,North,-999,0.0,0.0,81,0.00,,,0.00,pywws,2013-09-22 05:21:00,
2013-09-21 22:26:00,57.6,51.8,29.70,North,-999,0.0,0.0,81,0.00,,,0.00,pywws,2013-09-22 05:26:00,
2013-09-21 22:31:00,57.7,51.9,29.70,North,-999,0.0,0.0,81,0.00,,,0.00,pywws,2013-09-22 05:31:00,
2013-09-21 22:36:00,57.6,51.8,29.70,North,-999,0.0,0.0,81,0.00,,,0.00,pywws,2013-09-22 05:36:00,
2013-09-21 22:41:00,57.6,51.8,29.70,North,-999,0.0,0.0,81,0.00,,,0.00,pywws,2013-09-22 05:41:00,
2013-09-21 22:46:00,57.4,51.9,29.70,North,-999,0.0,0.0,82,0.00,,,0.00,pywws,2013-09-22 05:46:00,
2013-09-21 22:51:00,57.4,51.9,29.70,North,-999,0.0,0.0,82,0.00,,,0.00,pywws,2013-09-22 05:51:00,
2013-09-21 22:56:00,57.6,52.1,29.70,North,-999,0.0,0.0,82,0.00,,,0.00,pywws,2013-09-22 05:56:00,
2013-09-21 23:01:00,57.6,52.1,29.70,North,-999,0.0,0.0,82,0.00,,,0.00,pywws,2013-09-22 06:01:00,
2013-09-21 23:06:00,57.6,52.1,29.70,North,-999,0.0,0.0,82,0.00,,,0.00,pywws,2013-09-22 06:06:00,
2013-09-21 23:11:00,57.6,52.4,29.70,North,-999,0.0,0.0,83,0.00,,,0.00,pywws,2013-09-22 06:11:00,
2013-09-21 23:16:00,57.6,52.4,29.70,North,-999,0.0,0.0,83,0.00,,,0.00,pywws,2013-09-22 06:16:00,
2013-09-21 23:21:00,57.9,52.5,29.70,North,-999,0.0,1.6,82,0.00,,,0.00,pywws,2013-09-22 06:21:00,
2013-09-21 23:26:00,57.7,52.3,29.70,North,-999,0.0,0.0,82,0.00,,,0.00,pywws,2013-09-22 06:26:00,
2013-09-21 23:31:00,57.7,52.3,29.70,North,-999,0.0,0.0,82,0.00,,,0.00,pywws,2013-09-22 06:31:00,
2013-09-21 23:36:00,57.9,52.5,29.70,North,-999,0.0,0.0,82,0.00,,,0.00,pywws,2013-09-22 06:36:00,
2013-09-21 23:41:00,57.9,52.5,29.70,North,-999,0.0,0.7,82,0.00,,,0.00,pywws,2013-09-22 06:41:00,
2013-09-21 23:46:00,58.1,52.6,29.70,NW,315,1.6,5.4,82,0.00,,,0.00,pywws,2013-09-22 06:46:00,
2013-09-21 23:51:00,58.5,52.6,29.70,North,-999,0.0,0.7,81,0.00,,,0.00,pywws,2013-09-22 06:51:00,
2013-09-21 23:56:00,58.1,52.3,29.70,NW,315,1.6,2.2,81,0.00,,,0.00,pywws,2013-09-22 06:56:00,